Desert Springs, Nevada Weather observations

Data are for 10 minute period ending at time listed.
 Day   Time    Ave.   Ave.  Ave.  Vector   Max.   Total    Solar   
  of    of     Air    Rel.  Wind   Wind    Wind  Precip.   Rad.    
Year   Day     Temp.  Hum.  Speed  Dir.    Gust                    
2014   (PST)    F      %     mph   deg.    mph     in.     W/m2    
------------------------------------------------------------------- 
 240   13:00   86.0    16    7.0   144     12.0    3.10     898  
 240   14:00   88.0    15    4.0   265     14.0    3.10     876  
 240   15:00   89.0    16    6.0   260     19.0    3.10     792  
 240   16:00   90.0    15    7.0   251     20.0    3.10     665  
 240   17:00   88.0    16   15.0   287     22.0    3.10     492  
 240   18:00   84.0    19   18.0   308     25.0    3.10     158  
 240   19:00   79.0    24   21.0   300     29.0    3.10      46  
 240   20:00   75.0    25   18.0   290     27.0    3.10       0  
 240   21:00   74.0    27   13.0   263     20.0    3.10       0  
 240   22:00   72.0    31   11.0   254     18.0    3.10       0  
 240   23:00   71.0    33    5.0   238     12.0    3.10       0  
 241    0:00   70.0    33    4.0   240      8.0    3.10       0  
 241    1:00   68.0    35    7.0   246     12.0    3.10       0  
 241    2:00   68.0    36    8.0   247     13.0    3.10       0  
 241    3:00   67.0    36    7.0   242     12.0    3.10       0  
 241    4:00   65.0    40    7.0   255     10.0    3.10       0  
 241    5:00   64.0    42    5.0   240     13.0    3.10       0  
 241    6:00   63.0    42    7.0   227     10.0    3.10       4  
 241    7:00   65.0    41    5.0   261     13.0    3.10      87  
 241    8:00   70.0    36    5.0   267     10.0    3.10     134  
 241    9:00   72.0    33    5.0   225      9.0    3.10     343  
 241   10:00   78.0    25    3.0   231      8.0    3.10     530  
 241   11:00   80.0    17    7.0   279     13.0    3.10     593  
 241   12:00   82.0    16   11.0   284     20.0    3.10     688  

Return to Desert Springs, Nevada graphs page.


Western Regional Climate Center,wrcc@dri.edu